Time;durP1;ratioP1;P1;durP2;ratioP2;P2;SDS_P1;SDS_P2;PMS_P1;PMS_P2;Temp;Humidity;BMP_temperature;BMP_pressure;BME280_temperature;BME280_humidity;BME280_pressure;Samples;Min_cycle;Max_cycle;Signal;HPM_P1;HPM_P2
2021/09/02 00:01:56;;;;;;;3.40;2.10;;;22.90;96.70;;;;;;4965041;28;20125;-84
2021/09/02 00:04:26;;;;;;;1.83;1.65;;;22.90;96.70;;;;;;4960979;28;20047;-84
2021/09/02 00:06:55;;;;;;;3.28;1.83;;;22.90;96.70;;;;;;4966927;28;20139;-84
2021/09/02 00:09:23;;;;;;;3.67;1.85;;;23.00;96.70;;;;;;4967201;28;20129;-84
2021/09/02 00:11:52;;;;;;;4.95;2.05;;;23.00;96.70;;;;;;4965051;28;20551;-84
2021/09/02 00:14:20;;;;;;;2.83;1.90;;;22.90;96.70;;;;;;4964020;28;20097;-83
2021/09/02 00:16:51;;;;;;;4.60;1.80;;;22.90;96.70;;;;;;4965747;28;20054;-84
2021/09/02 00:19:20;;;;;;;2.90;1.65;;;22.80;96.70;;;;;;4970153;28;20051;-84
2021/09/02 00:25:32;;;;;;;2.58;1.40;;;22.80;96.70;;;;;;4978126;28;20043;-84
2021/09/02 00:28:00;;;;;;;3.67;1.83;;;22.60;96.70;;;;;;4969068;28;20074;-84
2021/09/02 00:34:42;;;;;;;3.22;1.25;;;22.50;96.70;;;;;;4906257;29;20090;-83
2021/09/02 00:37:11;;;;;;;3.38;1.58;;;22.40;96.70;;;;;;4892053;29;20471;-83
2021/09/02 00:39:39;;;;;;;2.33;1.60;;;22.30;96.70;;;;;;4895097;29;20044;-84
2021/09/02 00:42:09;;;;;;;1.98;1.60;;;22.30;96.70;;;;;;4892152;29;20080;-84
2021/09/02 00:44:44;;;;;;;2.92;1.90;;;22.30;96.70;;;;;;4928354;29;20051;-84
2021/09/02 00:47:14;;;;;;;4.70;1.40;;;22.20;96.70;;;;;;4908200;29;20052;-84
2021/09/02 00:49:43;;;;;;;1.63;1.45;;;22.30;96.70;;;;;;4892004;29;20553;-84
2021/09/02 00:52:14;;;;;;;2.90;1.40;;;22.30;96.70;;;;;;4909838;29;20055;-84
2021/09/02 00:54:45;;;;;;;2.38;1.35;;;22.20;96.70;;;;;;4929629;29;20095;-84
2021/09/02 00:57:17;;;;;;;3.20;1.15;;;22.30;96.70;;;;;;4918550;28;20051;-84
2021/09/02 00:59:46;;;;;;;2.47;1.33;;;22.20;96.70;;;;;;4961637;28;20054;-84
2021/09/02 01:02:14;;;;;;;2.45;1.60;;;22.10;96.70;;;;;;4988639;28;20558;-84
2021/09/02 01:04:42;;;;;;;3.70;1.52;;;22.10;96.70;;;;;;4950808;28;20089;-84
2021/09/02 01:07:11;;;;;;;2.60;1.42;;;22.00;96.70;;;;;;4970120;28;20493;-85
2021/09/02 01:09:41;;;;;;;1.85;1.40;;;22.00;96.70;;;;;;4966488;28;20046;-84
2021/09/02 01:12:52;;;;;;;7.47;1.92;;;21.90;96.70;;;;;;4967685;28;20070;-85
2021/09/02 01:15:25;;;;;;;2.67;1.58;;;21.80;96.70;;;;;;4998468;28;20042;-83
2021/09/02 01:17:57;;;;;;;2.28;1.38;;;21.90;96.70;;;;;;4947020;28;20509;-83
2021/09/02 01:20:28;;;;;;;2.45;1.50;;;21.90;96.70;;;;;;4968267;28;20125;-85
2021/09/02 01:23:00;;;;;;;3.33;1.35;;;22.00;96.70;;;;;;4981541;28;20038;-83
2021/09/02 01:25:32;;;;;;;3.55;1.50;;;21.90;96.70;;;;;;4967468;28;20051;-84
2021/09/02 01:28:02;;;;;;;1.92;1.20;;;21.80;96.70;;;;;;4967157;28;20093;-84
2021/09/02 01:30:32;;;;;;;2.92;1.33;;;21.80;96.70;;;;;;4964332;28;20039;-84
2021/09/02 01:33:00;;;;;;;3.75;1.20;;;21.70;96.70;;;;;;4968435;28;20301;-83
2021/09/02 01:35:32;;;;;;;2.33;1.17;;;21.70;96.70;;;;;;4966779;28;20161;-84
2021/09/02 01:38:03;;;;;;;2.30;1.40;;;21.60;96.70;;;;;;4966961;28;20047;-83
2021/09/02 01:40:35;;;;;;;3.58;1.40;;;21.70;96.70;;;;;;4972106;28;20047;-84
2021/09/02 01:43:08;;;;;;;2.30;1.38;;;21.80;96.70;;;;;;4955960;28;20058;-84
2021/09/02 01:45:37;;;;;;;4.57;1.17;;;21.80;96.70;;;;;;4965781;28;20053;-84
2021/09/02 01:48:06;;;;;;;2.38;1.40;;;21.70;96.70;;;;;;4965418;28;20072;-87
2021/09/02 01:54:05;;;;;;;2.25;1.52;;;21.60;96.70;;;;;;4964261;28;20050;-86
2021/09/02 01:56:35;;;;;;;1.83;1.27;;;21.40;96.70;;;;;;4967469;28;20035;-85
2021/09/02 01:59:04;;;;;;;2.67;1.13;;;21.40;96.70;;;;;;4963323;28;20046;-85
2021/09/02 02:01:32;;;;;;;3.35;1.35;;;21.30;96.70;;;;;;4960731;28;20050;-85
2021/09/02 02:04:01;;;;;;;1.80;1.38;;;21.30;96.70;;;;;;4968372;28;20070;-86
2021/09/02 02:06:29;;;;;;;2.30;1.67;;;21.30;96.70;;;;;;4967392;28;20050;-84
2021/09/02 02:08:58;;;;;;;3.50;1.52;;;21.40;96.70;;;;;;4973941;28;20049;-85
2021/09/02 02:11:26;;;;;;;2.55;1.40;;;21.30;96.70;;;;;;4965431;28;20051;-84
2021/09/02 02:13:56;;;;;;;2.78;1.42;;;21.30;96.70;;;;;;4969274;28;20042;-85
2021/09/02 02:16:24;;;;;;;2.22;1.40;;;21.20;96.70;;;;;;4969073;28;20073;-84
2021/09/02 02:18:53;;;;;;;1.88;1.35;;;21.10;96.70;;;;;;4967200;28;20039;-84
2021/09/02 02:21:21;;;;;;;1.70;1.33;;;21.10;96.70;;;;;;4965359;28;20043;-83
2021/09/02 02:23:49;;;;;;;3.40;1.40;;;21.20;96.70;;;;;;4955202;28;20051;-84
2021/09/02 02:26:21;;;;;;;1.67;1.30;;;21.20;96.70;;;;;;4960526;28;20597;-85
2021/09/02 02:28:49;;;;;;;3.50;1.60;;;21.10;96.70;;;;;;4969226;28;20053;-83
2021/09/02 02:31:19;;;;;;;2.28;1.10;;;21.00;96.70;;;;;;4966703;28;20039;-83
2021/09/02 02:33:47;;;;;;;1.92;1.50;;;21.00;96.70;;;;;;4967652;28;20134;-84
2021/09/02 02:36:16;;;;;;;2.58;1.65;;;21.10;96.70;;;;;;4965916;28;20054;-84
2021/09/02 02:38:44;;;;;;;3.20;1.40;;;21.10;96.70;;;;;;4963881;28;20042;-84
2021/09/02 02:41:12;;;;;;;3.03;1.70;;;21.20;96.70;;;;;;4963839;28;20049;-85
2021/09/02 02:43:41;;;;;;;3.20;1.30;;;21.20;96.70;;;;;;4968810;28;20113;-83
2021/09/02 02:46:09;;;;;;;3.78;1.55;;;21.20;96.70;;;;;;4973352;28;20097;-84
2021/09/02 02:48:39;;;;;;;2.03;1.30;;;21.20;96.70;;;;;;4963792;28;20059;-85
2021/09/02 02:51:08;;;;;;;1.38;1.10;;;21.10;96.70;;;;;;4970688;28;20144;-85
2021/09/02 02:53:36;;;;;;;2.78;1.30;;;21.00;96.70;;;;;;4963635;28;20043;-85
2021/09/02 02:56:05;;;;;;;1.67;1.40;;;21.00;96.70;;;;;;4966132;28;20046;-84
2021/09/02 02:58:33;;;;;;;3.25;1.38;;;20.90;96.70;;;;;;4960898;28;20082;-83
2021/09/02 03:01:01;;;;;;;1.23;1.13;;;20.90;96.70;;;;;;4969251;28;20046;-83
2021/09/02 03:03:30;;;;;;;2.80;1.20;;;20.90;96.70;;;;;;4949275;28;20054;-85
2021/09/02 03:06:00;;;;;;;1.65;1.23;;;21.00;96.70;;;;;;4967982;28;20040;-84
2021/09/02 03:08:28;;;;;;;2.45;1.48;;;20.90;96.70;;;;;;4969935;28;20078;-84
2021/09/02 03:10:57;;;;;;;1.77;1.40;;;20.90;96.70;;;;;;4962823;28;20043;-84
2021/09/02 03:13:26;;;;;;;2.65;1.35;;;20.90;96.70;;;;;;4966345;28;20050;-85
2021/09/02 03:15:54;;;;;;;2.05;1.40;;;20.70;96.70;;;;;;4964903;28;20054;-83
2021/09/02 03:18:22;;;;;;;4.28;1.70;;;20.70;96.70;;;;;;4966718;28;20063;-84
2021/09/02 03:20:51;;;;;;;2.50;1.30;;;20.80;96.70;;;;;;4964637;28;20066;-84
2021/09/02 03:23:20;;;;;;;2.38;1.20;;;20.90;96.70;;;;;;4965916;28;20227;-84
2021/09/02 03:25:49;;;;;;;3.70;1.40;;;20.80;96.70;;;;;;4966054;28;20109;-85
2021/09/02 03:28:19;;;;;;;2.47;1.50;;;20.70;96.70;;;;;;4963718;28;20053;-85
2021/09/02 03:30:50;;;;;;;2.13;1.40;;;20.60;96.70;;;;;;4964147;28;20042;-84
2021/09/02 03:33:19;;;;;;;2.38;1.38;;;20.70;96.70;;;;;;4964163;28;20047;-84
2021/09/02 03:35:47;;;;;;;3.20;1.67;;;20.60;96.70;;;;;;4963535;28;20046;-85
2021/09/02 03:38:15;;;;;;;4.63;1.52;;;20.50;96.70;;;;;;4966802;28;20465;-85
2021/09/02 03:40:45;;;;;;;2.95;1.42;;;20.50;96.70;;;;;;4965622;28;20046;-85
2021/09/02 03:43:13;;;;;;;1.75;1.15;;;20.30;96.70;;;;;;4964615;28;20536;-85
2021/09/02 03:45:41;;;;;;;2.33;1.45;;;20.30;96.70;;;;;;4949839;28;20078;-85
2021/09/02 03:48:09;;;;;;;4.05;1.52;;;20.20;96.70;;;;;;4963472;28;20134;-85
2021/09/02 03:50:37;;;;;;;3.78;1.83;;;20.00;96.70;;;;;;4970090;28;20125;-84
2021/09/02 03:53:05;;;;;;;4.03;1.30;;;20.00;96.70;;;;;;4969143;28;20070;-84
2021/09/02 03:55:34;;;;;;;2.33;1.67;;;19.90;96.70;;;;;;4965321;28;20047;-84
2021/09/02 03:58:06;;;;;;;2.15;1.30;;;19.90;96.70;;;;;;4964372;28;20058;-85
2021/09/02 04:00:35;;;;;;;3.10;1.10;;;19.90;96.70;;;;;;4974778;28;20042;-85
2021/09/02 04:03:03;;;;;;;2.35;1.40;;;20.00;96.70;;;;;;4969212;28;20043;-85
2021/09/02 04:05:32;;;;;;;2.78;1.20;;;20.00;96.70;;;;;;4966991;28;20047;-85
2021/09/02 04:08:00;;;;;;;1.50;1.05;;;20.00;96.70;;;;;;4970200;28;20050;-84
2021/09/02 04:10:28;;;;;;;2.95;1.55;;;20.00;96.70;;;;;;4961910;28;20141;-84
2021/09/02 04:12:56;;;;;;;2.58;1.42;;;19.90;96.70;;;;;;4969069;28;20133;-85
2021/09/02 04:15:26;;;;;;;3.08;1.13;;;19.90;96.70;;;;;;4969133;28;20066;-83
2021/09/02 04:17:54;;;;;;;2.72;1.45;;;19.90;96.70;;;;;;4950979;28;20047;-85
2021/09/02 04:20:22;;;;;;;2.15;1.40;;;20.00;96.70;;;;;;4967608;28;20051;-86
2021/09/02 04:22:50;;;;;;;2.65;1.50;;;20.00;96.70;;;;;;4971793;28;20042;-86
2021/09/02 04:25:18;;;;;;;2.08;1.40;;;20.10;96.70;;;;;;4985617;28;20519;-85
2021/09/02 04:27:47;;;;;;;2.63;1.27;;;20.10;96.70;;;;;;4968501;28;20509;-86
2021/09/02 04:30:15;;;;;;;5.18;1.60;;;20.20;96.70;;;;;;4952390;28;20110;-86
2021/09/02 04:32:44;;;;;;;2.65;1.55;;;20.10;96.70;;;;;;4970003;28;20067;-84
2021/09/02 04:35:13;;;;;;;2.53;1.75;;;20.00;96.70;;;;;;4970463;28;20045;-85
2021/09/02 04:37:44;;;;;;;2.38;1.30;;;20.00;96.70;;;;;;4977233;28;20579;-85
2021/09/02 04:40:14;;;;;;;3.03;1.35;;;19.90;96.70;;;;;;4980726;28;20046;-84
2021/09/02 04:42:43;;;;;;;3.00;1.70;;;19.80;96.70;;;;;;4970850;28;20053;-85
2021/09/02 04:45:12;;;;;;;2.13;1.48;;;19.90;96.70;;;;;;4978138;28;20049;-85
2021/09/02 04:47:41;;;;;;;2.85;1.50;;;19.80;96.70;;;;;;4969807;28;20059;-85
2021/09/02 04:50:12;;;;;;;1.90;1.50;;;19.70;96.70;;;;;;4972019;28;20493;-85
2021/09/02 04:52:40;;;;;;;2.58;1.55;;;19.80;96.70;;;;;;4970007;28;20058;-85
2021/09/02 04:55:10;;;;;;;3.17;1.40;;;19.90;96.70;;;;;;4961087;28;20051;-86
2021/09/02 04:57:39;;;;;;;3.25;1.30;;;19.90;96.70;;;;;;4967327;28;20505;-86
2021/09/02 05:00:08;;;;;;;1.75;1.42;;;19.90;96.70;;;;;;4972579;28;20484;-86
2021/09/02 05:02:36;;;;;;;4.13;1.42;;;19.90;96.70;;;;;;4968621;28;20058;-85
2021/09/02 05:05:05;;;;;;;2.80;1.67;;;20.00;96.70;;;;;;4968403;28;20035;-86
2021/09/02 05:07:35;;;;;;;5.60;1.50;;;20.00;96.70;;;;;;4950558;28;20105;-86
2021/09/02 05:10:06;;;;;;;2.45;1.42;;;19.90;96.70;;;;;;4973549;28;20500;-85
2021/09/02 05:12:34;;;;;;;4.68;1.52;;;19.90;96.70;;;;;;4974260;28;20509;-86
2021/09/02 05:15:03;;;;;;;2.40;1.30;;;20.00;96.70;;;;;;4964017;28;20039;-86
2021/09/02 05:17:32;;;;;;;2.40;1.30;;;20.00;96.70;;;;;;4986234;28;20043;-86
2021/09/02 05:20:00;;;;;;;2.47;1.50;;;20.00;96.70;;;;;;4965241;28;20523;-86
2021/09/02 05:22:28;;;;;;;1.73;1.27;;;20.10;96.70;;;;;;4967942;28;20141;-86
2021/09/02 05:24:58;;;;;;;3.20;1.83;;;20.00;96.70;;;;;;4965400;28;20070;-86
2021/09/02 05:27:27;;;;;;;2.05;1.60;;;20.10;96.70;;;;;;4967145;28;20055;-86
2021/09/02 05:29:55;;;;;;;3.47;1.95;;;20.10;96.70;;;;;;4952735;28;20346;-86
2021/09/02 05:32:23;;;;;;;4.43;1.60;;;20.20;96.70;;;;;;4965067;28;20043;-86
2021/09/02 05:34:51;;;;;;;2.80;1.63;;;20.20;96.70;;;;;;4951785;28;20042;-86
2021/09/02 05:37:19;;;;;;;4.03;1.75;;;20.20;96.70;;;;;;4969735;28;20047;-85
2021/09/02 05:39:48;;;;;;;4.82;1.88;;;20.20;96.70;;;;;;4969338;28;20082;-86
2021/09/02 05:42:17;;;;;;;2.50;1.73;;;20.30;96.70;;;;;;4952534;28;20039;-86
2021/09/02 05:44:46;;;;;;;3.28;1.60;;;20.30;96.70;;;;;;4967974;28;20145;-86
2021/09/02 05:47:14;;;;;;;2.85;1.60;;;20.30;96.70;;;;;;4966051;28;20057;-85
2021/09/02 05:49:42;;;;;;;4.03;1.67;;;20.40;96.70;;;;;;4967282;28;20057;-86
2021/09/02 05:52:10;;;;;;;2.85;1.60;;;20.50;96.70;;;;;;4952598;28;20047;-86
2021/09/02 05:54:39;;;;;;;4.00;1.77;;;20.50;96.70;;;;;;4966592;28;20151;-87
2021/09/02 05:57:07;;;;;;;2.60;1.60;;;20.50;96.70;;;;;;4951368;28;20070;-86
2021/09/02 05:59:37;;;;;;;3.47;1.60;;;20.40;96.70;;;;;;4971302;28;20047;-85
2021/09/02 06:02:05;;;;;;;2.30;1.65;;;20.50;96.70;;;;;;4950938;28;20465;-86
2021/09/02 06:04:34;;;;;;;2.42;1.70;;;20.40;96.70;;;;;;4966967;28;20039;-86
2021/09/02 06:07:02;;;;;;;4.07;1.60;;;20.50;96.70;;;;;;4952912;28;20134;-87
2021/09/02 06:09:30;;;;;;;1.98;1.63;;;20.70;96.70;;;;;;4967302;28;20051;-87
2021/09/02 06:11:59;;;;;;;3.67;1.50;;;20.70;96.70;;;;;;4950119;28;20039;-86
2021/09/02 06:14:27;;;;;;;1.80;1.48;;;20.80;96.70;;;;;;4969350;28;20504;-86
2021/09/02 06:16:57;;;;;;;2.80;1.52;;;20.80;96.70;;;;;;4967167;28;20157;-86
2021/09/02 06:19:26;;;;;;;2.53;1.58;;;20.90;96.70;;;;;;4966370;28;20198;-86
2021/09/02 06:21:54;;;;;;;5.22;1.80;;;20.80;96.70;;;;;;4975055;28;20523;-86
2021/09/02 06:24:22;;;;;;;4.28;1.50;;;20.80;96.70;;;;;;4951749;28;20051;-85
2021/09/02 06:26:50;;;;;;;2.40;1.48;;;20.90;96.70;;;;;;4963302;28;20062;-84
2021/09/02 06:29:19;;;;;;;2.53;1.70;;;20.90;96.70;;;;;;4966813;28;20078;-85
2021/09/02 06:31:47;;;;;;;3.03;1.77;;;20.90;96.70;;;;;;4966966;28;20133;-86
2021/09/02 06:34:16;;;;;;;2.78;1.70;;;21.00;96.70;;;;;;4949143;28;20154;-87
2021/09/02 06:36:45;;;;;;;2.28;1.60;;;21.00;96.70;;;;;;4965893;28;20047;-86
2021/09/02 06:39:14;;;;;;;7.15;2.08;;;21.10;96.70;;;;;;4967374;28;20584;-86
2021/09/02 06:41:42;;;;;;;2.45;1.42;;;21.20;96.70;;;;;;4966656;28;20035;-83
2021/09/02 06:44:11;;;;;;;1.70;1.42;;;21.30;96.70;;;;;;4968465;28;20039;-84
2021/09/02 06:46:39;;;;;;;3.58;2.10;;;21.30;96.70;;;;;;4965999;28;20113;-83
2021/09/02 06:49:07;;;;;;;3.22;1.52;;;21.40;96.70;;;;;;4964054;28;20041;-83
2021/09/02 06:51:39;;;;;;;1.77;1.40;;;21.50;96.70;;;;;;4949243;28;20046;-83
2021/09/02 06:54:07;;;;;;;3.78;1.55;;;21.60;96.70;;;;;;4965435;28;20058;-83
2021/09/02 06:56:36;;;;;;;5.68;1.67;;;21.70;96.70;;;;;;4966201;28;20050;-82
2021/09/02 06:59:04;;;;;;;4.35;1.35;;;21.70;96.70;;;;;;4963270;28;20042;-83
2021/09/02 07:01:32;;;;;;;2.75;1.40;;;21.80;96.70;;;;;;4960976;28;20133;-84
2021/09/02 07:04:01;;;;;;;2.92;1.60;;;21.90;96.70;;;;;;4960701;28;20038;-83
2021/09/02 07:06:29;;;;;;;2.28;0.90;;;22.00;96.70;;;;;;4957365;28;20097;-83
2021/09/02 07:08:59;;;;;;;2.50;1.13;;;22.00;96.70;;;;;;4961476;28;20050;-82
2021/09/02 07:11:27;;;;;;;3.47;0.88;;;22.00;96.70;;;;;;4961732;28;20093;-84
2021/09/02 07:13:55;;;;;;;3.25;1.30;;;22.20;96.70;;;;;;4960412;28;20295;-83
2021/09/02 07:16:23;;;;;;;1.83;0.85;;;22.20;96.70;;;;;;4971160;28;20425;-84
2021/09/02 07:18:51;;;;;;;4.57;1.20;;;22.30;96.70;;;;;;4947507;28;20071;-84
2021/09/02 07:21:19;;;;;;;4.47;1.08;;;22.40;96.70;;;;;;4962367;28;20047;-84
2021/09/02 07:23:48;;;;;;;3.08;1.38;;;22.50;96.70;;;;;;4974027;28;20469;-83
2021/09/02 07:26:21;;;;;;;2.67;1.08;;;22.60;96.70;;;;;;4964203;28;20147;-84
2021/09/02 07:28:49;;;;;;;1.88;1.00;;;22.70;96.70;;;;;;4959484;28;20678;-83
2021/09/02 07:31:17;;;;;;;1.88;1.30;;;22.80;96.70;;;;;;4962850;28;20101;-83
2021/09/02 07:33:45;;;;;;;3.50;1.23;;;22.80;96.70;;;;;;4959034;28;20166;-81
2021/09/02 07:36:14;;;;;;;3.47;1.30;;;22.90;96.70;;;;;;4965054;28;20580;-85
2021/09/02 07:38:42;;;;;;;2.47;1.60;;;23.00;96.70;;;;;;4966664;28;20101;-84
2021/09/02 07:41:11;;;;;;;2.90;1.30;;;23.00;96.70;;;;;;4966127;28;20043;-85
2021/09/02 07:43:42;;;;;;;3.92;1.33;;;23.10;96.70;;;;;;4965755;28;20039;-84
2021/09/02 07:46:10;;;;;;;2.25;0.80;;;23.10;96.70;;;;;;4965231;28;20039;-84
2021/09/02 07:48:41;;;;;;;2.67;1.17;;;23.20;96.70;;;;;;4962207;28;20617;-84
2021/09/02 07:51:09;;;;;;;3.33;1.13;;;23.30;96.70;;;;;;4964166;28;20034;-84
2021/09/02 07:53:37;;;;;;;1.45;0.82;;;23.40;96.70;;;;;;4962522;28;20039;-85
2021/09/02 07:56:05;;;;;;;2.72;1.08;;;23.40;96.70;;;;;;4965469;28;20039;-85
2021/09/02 07:58:37;;;;;;;2.72;1.00;;;23.60;96.70;;;;;;4961073;28;20222;-85
2021/09/02 08:01:10;;;;;;;2.38;1.27;;;23.60;96.70;;;;;;4946526;28;20054;-91
2021/09/02 08:03:39;;;;;;;1.73;0.85;;;23.70;96.70;;;;;;4969407;28;20071;-91
2021/09/02 08:06:07;;;;;;;2.05;0.85;;;23.80;96.70;;;;;;4965811;28;20046;-89
2021/09/02 08:08:35;;;;;;;2.35;1.00;;;23.90;96.30;;;;;;4950471;28;20138;-87
2021/09/02 08:11:04;;;;;;;4.82;1.00;;;24.00;95.90;;;;;;4967726;28;20039;-89
2021/09/02 08:13:32;;;;;;;5.40;1.48;;;24.10;95.70;;;;;;4976682;28;20051;-91
2021/09/02 08:16:00;;;;;;;3.38;1.02;;;24.20;95.30;;;;;;4962528;28;20567;-90
2021/09/02 08:18:29;;;;;;;5.57;1.00;;;24.20;95.00;;;;;;4950443;28;20581;-83
2021/09/02 08:20:57;;;;;;;1.65;1.10;;;24.30;94.20;;;;;;4966580;28;20051;-88
2021/09/02 08:23:26;;;;;;;1.30;0.80;;;24.40;93.60;;;;;;4990548;28;20510;-88
2021/09/02 08:25:54;;;;;;;2.90;0.70;;;24.50;92.80;;;;;;4945362;28;20051;-87
2021/09/02 08:28:22;;;;;;;1.13;0.80;;;24.60;92.30;;;;;;4949884;28;20548;-84
2021/09/02 08:30:50;;;;;;;3.15;1.00;;;24.80;91.30;;;;;;4949546;28;20414;-84
2021/09/02 08:33:18;;;;;;;0.82;0.60;;;24.80;89.90;;;;;;4987540;28;20620;-86
2021/09/02 08:35:50;;;;;;;2.05;0.68;;;25.00;87.90;;;;;;4962183;28;20043;-86
2021/09/02 08:38:19;;;;;;;1.38;0.77;;;25.20;87.00;;;;;;4967364;28;20042;-86
2021/09/02 08:40:48;;;;;;;1.20;0.80;;;25.30;87.20;;;;;;4969127;28;20047;-89
2021/09/02 08:43:17;;;;;;;1.10;0.80;;;25.40;86.00;;;;;;4965960;28;20441;-89
2021/09/02 08:46:05;;;;;;;1.38;1.05;;;25.40;85.40;;;;;;4950974;28;20505;-92
2021/09/02 08:48:36;;;;;;;1.67;1.00;;;25.50;84.30;;;;;;4963448;28;20078;-88
2021/09/02 08:51:06;;;;;;;1.38;0.80;;;25.60;82.80;;;;;;4972081;28;20039;-88
2021/09/02 08:53:34;;;;;;;1.23;0.70;;;25.80;83.00;;;;;;4968192;28;20047;-89
2021/09/02 08:56:04;;;;;;;4.10;0.80;;;25.90;82.40;;;;;;4959050;28;20493;-92
2021/09/02 08:58:32;;;;;;;1.48;1.00;;;26.10;81.80;;;;;;4969217;28;20030;-90
2021/09/02 09:01:00;;;;;;;3.30;0.60;;;26.20;81.50;;;;;;4971242;28;20050;-92
2021/09/02 09:03:29;;;;;;;1.40;0.77;;;26.30;81.20;;;;;;4988704;28;20097;-90
2021/09/02 09:06:00;;;;;;;2.88;0.65;;;26.40;80.40;;;;;;4975791;28;20043;-90
2021/09/02 09:08:35;;;;;;;0.88;0.70;;;26.50;79.50;;;;;;4970360;28;20051;-91
2021/09/02 09:11:21;;;;;;;1.52;0.60;;;26.50;79.00;;;;;;4970136;28;20063;-92
2021/09/02 09:14:05;;;;;;;7.97;1.13;;;26.40;79.00;;;;;;4968713;28;20529;-92
2021/09/02 09:16:43;;;;;;;1.75;0.60;;;26.40;78.70;;;;;;4966581;28;20054;-89
2021/09/02 09:19:38;;;;;;;0.90;0.63;;;26.60;78.50;;;;;;4966546;28;20205;-86
2021/09/02 09:22:09;;;;;;;1.13;0.82;;;26.70;78.50;;;;;;4965112;28;20181;-90
2021/09/02 09:24:48;;;;;;;1.50;0.77;;;26.70;78.60;;;;;;4967814;28;20072;-94
2021/09/02 09:27:19;;;;;;;1.08;0.70;;;26.70;78.50;;;;;;4965156;28;20050;-88
2021/09/02 09:30:05;;;;;;;1.63;0.52;;;27.00;77.90;;;;;;4972912;28;20600;-89
2021/09/02 09:32:42;;;;;;;2.97;0.80;;;27.10;76.70;;;;;;4952102;28;20055;-87
2021/09/02 09:35:13;;;;;;;0.70;0.63;;;27.00;75.90;;;;;;4982102;28;20061;-88
2021/09/02 09:37:45;;;;;;;0.65;0.50;;;26.90;75.70;;;;;;4976352;28;20090;-87
2021/09/02 09:40:18;;;;;;;1.33;0.70;;;27.20;75.40;;;;;;4968138;28;20490;-87
2021/09/02 09:42:58;;;;;;;1.17;0.70;;;27.20;75.30;;;;;;4978546;28;20599;-90
2021/09/02 09:45:41;;;;;;;0.90;0.70;;;27.40;76.10;;;;;;4963850;28;20043;-90
2021/09/02 09:48:32;;;;;;;1.25;0.90;;;27.60;75.60;;;;;;4974098;28;20726;-87
2021/09/02 09:51:14;;;;;;;4.78;0.63;;;27.60;75.50;;;;;;4972163;28;20049;-87
2021/09/02 09:53:44;;;;;;;1.73;0.80;;;27.70;75.80;;;;;;4961838;28;20073;-87
2021/09/02 09:56:17;;;;;;;2.47;0.90;;;27.80;75.10;;;;;;4968038;28;20038;-87
2021/09/02 09:58:45;;;;;;;1.52;0.70;;;27.90;74.00;;;;;;4967525;28;20062;-86
2021/09/02 10:01:14;;;;;;;1.40;1.00;;;28.10;74.30;;;;;;4946788;28;20043;-88
2021/09/02 10:03:43;;;;;;;1.00;0.80;;;28.00;74.00;;;;;;4949162;28;20050;-85
2021/09/02 10:06:12;;;;;;;1.08;0.55;;;28.00;73.90;;;;;;4967128;28;20046;-90
2021/09/02 10:08:43;;;;;;;0.80;0.73;;;27.90;73.70;;;;;;4968269;28;20050;-88
2021/09/02 10:11:14;;;;;;;1.92;0.80;;;28.00;72.90;;;;;;4972762;28;20061;-88
2021/09/02 10:13:44;;;;;;;1.25;0.57;;;28.00;72.00;;;;;;4962713;28;20046;-84
2021/09/02 10:16:13;;;;;;;0.90;0.60;;;28.20;71.30;;;;;;4968452;28;20047;-85
2021/09/02 10:18:44;;;;;;;2.30;0.68;;;28.20;71.00;;;;;;4970283;28;20082;-86
2021/09/02 10:21:14;;;;;;;0.65;0.50;;;28.40;70.60;;;;;;4970080;28;20504;-86
2021/09/02 10:23:42;;;;;;;0.98;0.73;;;28.40;70.60;;;;;;4966353;28;20058;-86
2021/09/02 10:26:33;;;;;;;1.67;0.77;;;28.40;71.40;;;;;;4967419;28;20049;-87
2021/09/02 10:29:23;;;;;;;0.68;0.60;;;28.50;72.00;;;;;;4967426;28;20527;-87
2021/09/02 10:31:51;;;;;;;0.90;0.55;;;28.70;71.70;;;;;;4961046;28;20528;-87
2021/09/02 10:34:28;;;;;;;0.90;0.50;;;28.90;71.30;;;;;;4970182;28;20074;-87
2021/09/02 10:36:56;;;;;;;1.40;0.60;;;29.10;71.20;;;;;;4950648;28;20560;-88
2021/09/02 10:39:41;;;;;;;2.08;0.90;;;29.20;70.40;;;;;;4951789;28;20057;-87
2021/09/02 10:42:30;;;;;;;0.70;0.60;;;29.20;71.10;;;;;;4966605;28;20043;-88
2021/09/02 10:44:58;;;;;;;1.40;0.80;;;29.10;70.60;;;;;;4973454;28;20556;-89
2021/09/02 10:47:30;;;;;;;0.65;0.63;;;29.10;71.10;;;;;;4971242;28;20053;-88
2021/09/02 10:50:02;;;;;;;1.15;0.63;;;29.40;70.80;;;;;;4947720;28;20129;-88
2021/09/02 10:52:31;;;;;;;1.27;0.73;;;29.60;68.70;;;;;;4971997;28;20416;-86
2021/09/02 10:55:36;;;;;;;0.80;0.63;;;29.70;69.40;;;;;;4966474;28;20118;-87
2021/09/02 10:58:07;;;;;;;0.73;0.57;;;29.90;67.70;;;;;;4962566;28;20050;-88
2021/09/02 11:00:37;;;;;;;1.40;0.60;;;30.00;67.40;;;;;;4963021;28;20050;-89
2021/09/02 11:03:14;;;;;;;1.38;0.75;;;30.10;66.80;;;;;;4949717;28;20047;-88
2021/09/02 11:05:43;;;;;;;1.63;1.10;;;30.20;65.00;;;;;;4961159;28;20051;-86
2021/09/02 11:08:11;;;;;;;0.90;0.57;;;30.30;64.60;;;;;;4967313;28;20051;-87
2021/09/02 11:10:38;;;;;;;2.28;0.75;;;30.30;64.10;;;;;;4961866;28;20054;-86
2021/09/02 11:13:08;;;;;;;1.17;1.00;;;30.20;64.70;;;;;;4963723;28;20050;-88
2021/09/02 11:15:37;;;;;;;1.23;0.93;;;30.40;65.10;;;;;;4955844;28;20061;-87
2021/09/02 11:18:06;;;;;;;2.53;0.88;;;30.40;65.40;;;;;;4965005;28;20126;-89
2021/09/02 11:20:43;;;;;;;0.90;0.75;;;30.40;66.00;;;;;;4948820;28;20441;-88
2021/09/02 11:23:13;;;;;;;2.45;0.90;;;30.40;66.70;;;;;;4978859;28;20070;-86
2021/09/02 11:25:43;;;;;;;1.50;0.98;;;30.50;65.50;;;;;;4977992;28;20043;-87
2021/09/02 11:28:14;;;;;;;1.27;1.15;;;30.60;63.70;;;;;;4982530;28;20051;-87
2021/09/02 11:30:42;;;;;;;1.45;0.80;;;30.70;63.70;;;;;;4964123;28;20042;-88
2021/09/02 11:33:10;;;;;;;1.10;0.90;;;30.90;63.20;;;;;;4964746;28;20130;-87
2021/09/02 11:35:39;;;;;;;1.00;0.90;;;30.90;63.10;;;;;;4967026;28;20062;-87
2021/09/02 11:38:09;;;;;;;1.08;0.80;;;30.70;63.40;;;;;;4948086;28;20109;-88
2021/09/02 11:40:38;;;;;;;0.80;0.77;;;30.60;63.00;;;;;;4965706;28;20090;-88
2021/09/02 11:43:17;;;;;;;1.27;0.90;;;30.50;64.10;;;;;;4965591;28;20106;-88
2021/09/02 11:45:50;;;;;;;2.50;0.88;;;30.80;63.70;;;;;;4965772;28;20053;-87
2021/09/02 11:48:19;;;;;;;0.85;0.73;;;30.50;63.00;;;;;;4966669;28;20051;-89
2021/09/02 11:50:57;;;;;;;1.23;1.00;;;30.60;63.90;;;;;;4963131;28;20074;-87
2021/09/02 11:53:30;;;;;;;1.05;0.90;;;30.90;64.00;;;;;;4960533;28;20047;-88
2021/09/02 11:56:10;;;;;;;2.45;1.00;;;31.00;63.10;;;;;;4967322;28;20062;-89
2021/09/02 11:58:41;;;;;;;1.40;0.80;;;31.00;63.40;;;;;;4964471;28;20043;-88
2021/09/02 12:01:10;;;;;;;1.20;0.90;;;31.00;63.60;;;;;;4967468;28;20109;-87
2021/09/02 12:03:39;;;;;;;2.05;0.85;;;31.00;64.20;;;;;;4948998;28;20062;-88
2021/09/02 12:06:08;;;;;;;1.20;1.00;;;31.10;63.70;;;;;;4965346;28;20073;-88
2021/09/02 12:08:37;;;;;;;1.33;1.00;;;31.00;64.80;;;;;;4957739;28;20047;-88
2021/09/02 12:11:07;;;;;;;0.98;0.80;;;31.00;65.00;;;;;;4964721;28;20084;-88
2021/09/02 12:13:36;;;;;;;1.05;0.77;;;31.20;65.10;;;;;;4964073;28;20505;-85
2021/09/02 12:16:08;;;;;;;0.98;0.80;;;31.30;63.90;;;;;;4946294;28;20593;-85
2021/09/02 12:18:38;;;;;;;1.45;0.70;;;31.50;62.80;;;;;;4962876;28;20054;-85
2021/09/02 12:21:18;;;;;;;1.00;0.90;;;31.70;62.90;;;;;;4963055;28;20046;-84
2021/09/02 12:23:49;;;;;;;1.08;0.90;;;31.90;63.10;;;;;;4972490;28;20081;-85
2021/09/02 12:26:20;;;;;;;1.10;0.80;;;32.00;62.10;;;;;;4965942;28;20042;-84
2021/09/02 12:28:50;;;;;;;1.50;0.93;;;32.10;61.50;;;;;;4989377;28;20060;-84
2021/09/02 12:31:23;;;;;;;0.82;0.70;;;32.00;61.20;;;;;;4973515;28;20069;-84
2021/09/02 12:34:08;;;;;;;1.20;0.90;;;32.10;61.10;;;;;;4949805;28;20079;-85
2021/09/02 12:36:37;;;;;;;2.17;0.90;;;32.30;61.20;;;;;;4964966;28;20662;-85
2021/09/02 12:39:21;;;;;;;1.35;1.00;;;32.30;61.30;;;;;;4966317;28;20497;-84
2021/09/02 12:41:52;;;;;;;1.38;0.90;;;32.40;61.40;;;;;;4981991;28;20110;-85
2021/09/02 12:44:29;;;;;;;1.90;1.20;;;32.50;61.30;;;;;;4967535;28;20043;-85
2021/09/02 12:47:03;;;;;;;1.75;0.65;;;32.60;61.10;;;;;;4968217;28;20047;-85
2021/09/02 12:49:40;;;;;;;1.77;0.90;;;32.60;61.40;;;;;;4981353;28;20046;-87
2021/09/02 12:52:17;;;;;;;2.33;0.90;;;32.50;61.00;;;;;;4969502;28;20050;-89
2021/09/02 12:55:14;;;;;;;1.58;1.10;;;32.20;61.20;;;;;;4968884;28;20338;-89
2021/09/02 12:57:44;;;;;;;1.13;0.88;;;32.50;61.40;;;;;;4963356;28;20055;-87
2021/09/02 13:00:15;;;;;;;0.95;0.85;;;32.60;60.60;;;;;;4971795;28;20409;-88
2021/09/02 13:02:47;;;;;;;1.20;1.00;;;32.80;61.40;;;;;;4968273;28;20121;-89
2021/09/02 13:05:17;;;;;;;1.25;0.90;;;32.90;59.70;;;;;;4992398;28;20382;-85
2021/09/02 13:07:49;;;;;;;1.75;1.30;;;32.90;60.30;;;;;;4984089;28;20136;-86
2021/09/02 13:10:19;;;;;;;1.55;0.77;;;33.00;60.20;;;;;;4967694;28;20524;-86
2021/09/02 13:12:49;;;;;;;1.00;0.82;;;33.00;60.70;;;;;;4966801;28;20046;-87
2021/09/02 13:15:18;;;;;;;1.17;0.90;;;32.90;60.80;;;;;;4981795;28;20062;-88
2021/09/02 13:17:48;;;;;;;2.17;0.82;;;33.00;60.20;;;;;;4968910;28;20039;-87